Time;durP1;ratioP1;P1;durP2;ratioP2;P2;SDS_P1;SDS_P2;PMS_P1;PMS_P2;Temp;Humidity;BMP_temperature;BMP_pressure;BME280_temperature;BME280_humidity;BME280_pressure;Samples;Min_cycle;Max_cycle;Signal;HPM_P1;HPM_P2
2024/04/08 00:00:45;;;;;;;0.00;0.00;;;;;;;15.95;91.60;98881.09;5031635;28;20080;-57
2024/04/08 00:03:11;;;;;;;0.00;0.00;;;;;;;15.92;92.57;98865.44;5036502;28;20057;-57
2024/04/08 00:05:38;;;;;;;0.00;0.00;;;;;;;15.89;92.34;98855.19;5034481;28;20056;-57
2024/04/08 00:08:05;;;;;;;0.00;0.00;;;;;;;15.88;92.66;98848.19;5034491;28;20045;-57
2024/04/08 00:10:32;;;;;;;0.00;0.00;;;;;;;15.81;92.68;98842.31;5032329;28;20041;-57
2024/04/08 00:12:58;;;;;;;0.10;0.10;;;;;;;15.92;92.06;98827.59;5033920;28;20042;-57
2024/04/08 00:15:26;;;;;;;0.00;0.00;;;;;;;15.72;92.55;98818.63;5032008;28;20507;-57
2024/04/08 00:17:52;;;;;;;0.00;0.00;;;;;;;15.65;92.85;98820.00;5033303;28;20148;-57
2024/04/08 00:20:19;;;;;;;0.00;0.00;;;;;;;15.62;93.69;98818.69;5036699;28;20037;-57
2024/04/08 00:22:46;;;;;;;0.00;0.00;;;;;;;15.59;94.17;98813.06;5034167;28;20045;-57
2024/04/08 00:25:13;;;;;;;0.10;0.10;;;;;;;15.57;94.70;98805.22;5031283;28;20044;-57
2024/04/08 00:27:39;;;;;;;0.00;0.00;;;;;;;15.65;93.74;98780.31;5033697;28;20052;-57
2024/04/08 00:30:07;;;;;;;0.00;0.00;;;;;;;15.75;93.48;98771.31;5035076;28;20057;-57
2024/04/08 00:32:35;;;;;;;0.00;0.00;;;;;;;15.68;94.18;98790.53;5053985;28;20102;-57
2024/04/08 00:35:02;;;;;;;0.00;0.00;;;;;;;15.54;95.20;98800.41;5027652;28;20061;-57
2024/04/08 00:37:28;;;;;;;0.00;0.00;;;;;;;15.50;95.63;98804.75;5042599;28;20056;-57
2024/04/08 00:39:55;;;;;;;0.00;0.00;;;;;;;15.52;96.28;98813.38;5040041;28;20049;-57
2024/04/08 00:42:21;;;;;;;0.08;0.08;;;;;;;15.57;96.10;98812.53;5038967;28;20754;-57
2024/04/08 00:44:48;;;;;;;0.00;0.00;;;;;;;15.40;97.25;98824.59;5032225;28;20045;-57
2024/04/08 00:47:14;;;;;;;0.00;0.00;;;;;;;15.32;98.88;98807.09;5037444;28;20034;-57
2024/04/08 00:49:43;;;;;;;0.00;0.00;;;;;;;15.31;100.00;98794.69;5032518;28;20427;-58
2024/04/08 00:52:10;;;;;;;0.00;0.00;;;;;;;15.08;100.00;98787.34;5026785;28;20041;-57
2024/04/08 00:54:37;;;;;;;0.00;0.00;;;;;;;14.97;100.00;98775.78;5031722;28;20042;-59
2024/04/08 00:57:04;;;;;;;0.00;0.00;;;;;;;14.87;100.00;98773.97;5032777;28;20045;-57
2024/04/08 00:59:31;;;;;;;0.00;0.00;;;;;;;14.81;100.00;98777.81;5034021;28;20048;-57
2024/04/08 01:01:57;;;;;;;0.00;0.00;;;;;;;14.81;100.00;98772.41;5034534;28;20044;-57
2024/04/08 01:04:24;;;;;;;0.00;0.00;;;;;;;14.77;100.00;98765.97;5029630;28;20041;-57
2024/04/08 01:06:51;;;;;;;0.10;0.10;;;;;;;14.71;100.00;98755.50;5031367;28;20045;-57
2024/04/08 01:09:18;;;;;;;0.00;0.00;;;;;;;14.76;100.00;98763.56;5036107;28;20041;-57
2024/04/08 01:11:44;;;;;;;0.00;0.00;;;;;;;14.67;100.00;98783.03;5030334;28;20056;-57
2024/04/08 01:14:11;;;;;;;0.00;0.00;;;;;;;14.72;100.00;98797.56;5029505;28;20631;-57
2024/04/08 01:16:38;;;;;;;0.00;0.00;;;;;;;14.77;100.00;98800.22;5028906;28;20361;-57
2024/04/08 01:19:05;;;;;;;0.00;0.00;;;;;;;14.69;100.00;98800.84;5044838;28;20063;-57
2024/04/08 01:21:31;;;;;;;0.00;0.00;;;;;;;14.63;100.00;98808.97;5033470;28;20049;-57
2024/04/08 01:23:59;;;;;;;0.10;0.10;;;;;;;14.73;100.00;98805.41;5034780;28;20042;-57
2024/04/08 01:26:25;;;;;;;0.00;0.00;;;;;;;14.67;100.00;98799.19;5032929;28;20545;-57
2024/04/08 01:28:52;;;;;;;0.10;0.10;;;;;;;14.58;100.00;98800.91;5037899;28;20099;-57
2024/04/08 01:31:18;;;;;;;0.10;0.10;;;;;;;14.55;100.00;98811.41;5032108;28;20617;-57
2024/04/08 01:33:45;;;;;;;0.00;0.00;;;;;;;14.54;100.00;98815.22;5033704;28;20568;-57
2024/04/08 01:36:11;;;;;;;0.10;0.10;;;;;;;14.48;100.00;98813.59;5051497;28;20098;-57
2024/04/08 01:38:39;;;;;;;0.00;0.00;;;;;;;14.56;100.00;98824.63;5036828;28;20144;-57
2024/04/08 01:41:07;;;;;;;0.10;0.10;;;;;;;14.45;100.00;98831.94;5047420;28;20103;-57
2024/04/08 01:43:34;;;;;;;0.00;0.00;;;;;;;14.35;100.00;98832.00;5035894;28;20041;-57
2024/04/08 01:46:00;;;;;;;0.00;0.00;;;;;;;14.41;100.00;98840.88;5033844;28;20140;-58
2024/04/08 01:48:27;;;;;;;0.00;0.00;;;;;;;14.38;100.00;98828.75;5033349;28;20183;-57
2024/04/08 01:50:54;;;;;;;0.03;0.03;;;;;;;14.29;100.00;98835.78;5038446;28;20045;-57
2024/04/08 01:53:21;;;;;;;0.00;0.00;;;;;;;14.20;100.00;98838.25;5033683;28;20072;-57
2024/04/08 01:55:47;;;;;;;0.00;0.00;;;;;;;14.26;100.00;98830.97;5033782;28;20429;-57
2024/04/08 01:58:15;;;;;;;0.03;0.03;;;;;;;14.27;100.00;98832.56;5033516;28;20048;-57
2024/04/08 02:00:41;;;;;;;0.00;0.00;;;;;;;14.28;100.00;98833.34;5033457;28;20422;-57
2024/04/08 02:03:08;;;;;;;0.00;0.00;;;;;;;14.34;100.00;98854.63;5029357;28;20060;-57
2024/04/08 02:05:34;;;;;;;0.10;0.10;;;;;;;14.21;100.00;98866.03;5032485;28;20135;-57
2024/04/08 02:08:01;;;;;;;0.08;0.08;;;;;;;14.14;100.00;98900.53;5030554;28;20052;-57
2024/04/08 02:10:27;;;;;;;0.00;0.00;;;;;;;14.06;100.00;98879.53;5034823;28;20045;-57
2024/04/08 02:12:54;;;;;;;0.00;0.00;;;;;;;13.88;100.00;98889.81;5032415;28;20527;-57
2024/04/08 02:15:22;;;;;;;0.00;0.00;;;;;;;14.00;100.00;98870.66;5027181;28;20482;-57
2024/04/08 02:17:49;;;;;;;0.10;0.10;;;;;;;13.96;100.00;98834.56;5031822;28;20037;-57
2024/04/08 02:20:15;;;;;;;0.00;0.00;;;;;;;13.83;100.00;98822.50;5029857;28;20099;-57
2024/04/08 02:22:42;;;;;;;0.10;0.10;;;;;;;13.77;100.00;98807.41;5035441;28;20060;-57
2024/04/08 02:25:08;;;;;;;0.10;0.10;;;;;;;13.83;100.00;98795.56;5036670;28;20456;-58
2024/04/08 02:27:35;;;;;;;0.10;0.10;;;;;;;13.82;100.00;98772.38;5032347;28;20041;-57
2024/04/08 02:30:02;;;;;;;0.10;0.10;;;;;;;13.87;100.00;98720.38;5029770;28;20047;-57
2024/04/08 02:32:31;;;;;;;0.10;0.10;;;;;;;13.73;100.00;98698.63;5031360;28;20124;-57
2024/04/08 02:34:57;;;;;;;0.10;0.10;;;;;;;13.84;100.00;98694.78;5031335;28;20041;-57
2024/04/08 02:37:24;;;;;;;0.10;0.10;;;;;;;13.74;100.00;98705.63;5032520;28;20452;-57
2024/04/08 02:39:50;;;;;;;0.10;0.10;;;;;;;13.62;100.00;98697.84;5027109;28;20747;-57
2024/04/08 02:42:17;;;;;;;0.10;0.10;;;;;;;13.52;100.00;98693.28;5031483;28;20079;-57
2024/04/08 02:44:43;;;;;;;0.10;0.10;;;;;;;13.38;100.00;98708.44;5026820;28;20053;-57
2024/04/08 02:47:10;;;;;;;0.10;0.10;;;;;;;13.24;100.00;98718.13;5027493;28;20053;-57
2024/04/08 02:49:37;;;;;;;0.10;0.10;;;;;;;13.11;100.00;98732.94;5033413;28;20807;-57
2024/04/08 02:52:13;;;;;;;0.10;0.10;;;;;;;13.11;100.00;98757.97;5032521;28;20052;-57
2024/04/08 02:54:39;;;;;;;0.10;0.10;;;;;;;13.16;100.00;98755.25;5028889;28;20140;-57
2024/04/08 02:57:06;;;;;;;0.10;0.10;;;;;;;13.05;100.00;98739.38;5028731;28;20049;-57
2024/04/08 02:59:33;;;;;;;0.10;0.10;;;;;;;13.12;100.00;98732.66;5030465;28;20216;-57
2024/04/08 03:02:00;;;;;;;0.10;0.10;;;;;;;13.02;100.00;98740.75;5026093;28;20057;-60
2024/04/08 03:04:26;;;;;;;0.10;0.10;;;;;;;12.97;100.00;98737.25;5033285;28;20119;-57
2024/04/08 03:06:54;;;;;;;0.10;0.10;;;;;;;12.99;100.00;98730.53;5032208;28;20049;-57
2024/04/08 03:09:21;;;;;;;0.00;0.00;;;;;;;12.98;100.00;98731.63;5027706;28;20069;-57
2024/04/08 03:11:48;;;;;;;0.10;0.10;;;;;;;12.84;100.00;98733.22;5034114;28;20057;-57
2024/04/08 03:14:14;;;;;;;0.10;0.10;;;;;;;12.88;100.00;98720.84;5029533;28;20049;-57
2024/04/08 03:16:43;;;;;;;0.10;0.10;;;;;;;12.80;100.00;98729.44;5039475;28;20049;-57
2024/04/08 03:19:09;;;;;;;0.20;0.20;;;;;;;12.82;100.00;98738.84;5031979;28;20111;-57
2024/04/08 03:21:36;;;;;;;0.10;0.10;;;;;;;12.81;100.00;98739.16;5028250;28;20123;-57
2024/04/08 03:24:03;;;;;;;0.10;0.10;;;;;;;12.65;100.00;98733.75;5041691;28;20040;-57
2024/04/08 03:26:30;;;;;;;0.10;0.10;;;;;;;12.61;100.00;98730.00;5030657;28;20139;-57
2024/04/08 03:28:57;;;;;;;0.10;0.10;;;;;;;12.61;100.00;98735.38;5029391;28;20644;-57
2024/04/08 03:31:24;;;;;;;0.10;0.10;;;;;;;12.53;100.00;98733.22;5034743;28;20060;-60
2024/04/08 03:33:50;;;;;;;0.20;0.20;;;;;;;12.48;100.00;98738.56;5035931;28;20400;-58
2024/04/08 03:36:17;;;;;;;0.10;0.10;;;;;;;12.50;100.00;98739.09;5032376;28;20037;-58
2024/04/08 03:38:44;;;;;;;0.10;0.10;;;;;;;12.50;100.00;98736.41;5033867;28;20065;-57
2024/04/08 03:41:13;;;;;;;0.20;0.20;;;;;;;12.59;100.00;98740.19;5032613;28;20048;-57
2024/04/08 03:43:39;;;;;;;0.20;0.20;;;;;;;12.57;100.00;98742.34;5036563;28;20045;-57
2024/04/08 03:46:06;;;;;;;0.20;0.20;;;;;;;12.69;100.00;98744.78;5030185;28;20057;-57
2024/04/08 03:48:33;;;;;;;0.20;0.20;;;;;;;12.51;100.00;98759.56;5035650;28;20685;-57
2024/04/08 03:51:07;;;;;;;0.10;0.10;;;;;;;12.56;100.00;98740.75;5040807;28;20096;-57
2024/04/08 03:53:34;;;;;;;0.10;0.10;;;;;;;12.44;100.00;98732.91;5028654;28;20555;-57
2024/04/08 03:56:04;;;;;;;0.10;0.10;;;;;;;12.39;100.00;98729.44;5036030;28;20287;-57
2024/04/08 03:58:32;;;;;;;0.10;0.10;;;;;;;12.36;100.00;98713.84;5034219;28;20055;-57
2024/04/08 04:00:59;;;;;;;0.10;0.10;;;;;;;12.46;100.00;98716.53;5036821;28;20052;-57
2024/04/08 04:03:26;;;;;;;0.10;0.10;;;;;;;12.18;100.00;98715.97;5031284;28;20511;-57
2024/04/08 04:05:53;;;;;;;0.20;0.20;;;;;;;12.32;100.00;98710.84;5033589;28;20084;-57
2024/04/08 04:08:19;;;;;;;0.10;0.10;;;;;;;12.30;100.00;98727.28;5038851;28;20041;-57
2024/04/08 04:10:46;;;;;;;0.10;0.10;;;;;;;12.29;100.00;98722.94;5031774;28;20605;-57
2024/04/08 04:13:12;;;;;;;0.10;0.10;;;;;;;12.24;100.00;98725.63;5038718;28;20135;-60
2024/04/08 04:15:41;;;;;;;0.10;0.10;;;;;;;11.99;100.00;98747.06;5034786;28;20044;-59
2024/04/08 04:18:07;;;;;;;0.20;0.20;;;;;;;11.81;100.00;98750.97;5031936;28;20042;-57
2024/04/08 04:20:39;;;;;;;0.10;0.10;;;;;;;11.89;100.00;98750.50;5039758;28;20114;-57
2024/04/08 04:23:05;;;;;;;0.13;0.13;;;;;;;11.63;100.00;98745.00;5039160;28;20843;-58
2024/04/08 04:25:32;;;;;;;0.20;0.20;;;;;;;11.42;100.00;98752.09;5039773;28;20053;-58
2024/04/08 04:28:00;;;;;;;0.20;0.20;;;;;;;11.52;100.00;98751.34;5030760;28;20053;-57
2024/04/08 04:30:27;;;;;;;0.10;0.10;;;;;;;11.26;100.00;98760.31;5037072;28;20050;-58
2024/04/08 04:32:56;;;;;;;0.10;0.10;;;;;;;11.35;100.00;98751.53;5035694;28;20041;-58
2024/04/08 04:35:23;;;;;;;0.10;0.10;;;;;;;11.16;100.00;98750.34;5035283;28;20087;-57
2024/04/08 04:37:49;;;;;;;0.20;0.20;;;;;;;11.09;100.00;98757.81;5010194;28;20672;-57
2024/04/08 04:40:17;;;;;;;0.20;0.20;;;;;;;11.17;100.00;98751.94;5035145;28;20394;-57
2024/04/08 04:42:43;;;;;;;0.20;0.20;;;;;;;11.36;100.00;98755.84;5037528;28;20052;-57
2024/04/08 04:45:10;;;;;;;0.20;0.20;;;;;;;11.14;100.00;98755.16;5034818;28;20131;-57
2024/04/08 04:47:36;;;;;;;0.17;0.17;;;;;;;10.82;100.00;98771.25;5035187;28;20049;-58
2024/04/08 04:50:06;;;;;;;0.20;0.20;;;;;;;11.17;100.00;98749.28;5035598;28;20156;-60
2024/04/08 04:52:33;;;;;;;0.10;0.10;;;;;;;11.27;100.00;98741.28;5036577;28;20136;-57
2024/04/08 04:55:00;;;;;;;0.15;0.15;;;;;;;11.24;100.00;98731.06;5028350;28;20309;-57
2024/04/08 04:57:26;;;;;;;0.20;0.20;;;;;;;11.23;100.00;98734.81;5028515;28;20813;-58
2024/04/08 04:59:53;;;;;;;0.13;0.13;;;;;;;11.19;100.00;98731.84;5036443;28;20051;-57
2024/04/08 05:02:19;;;;;;;0.20;0.20;;;;;;;11.11;100.00;98735.03;5033430;28;20419;-57
2024/04/08 05:04:46;;;;;;;0.20;0.20;;;;;;;11.08;100.00;98729.34;5037553;28;20099;-57
2024/04/08 05:07:13;;;;;;;0.20;0.20;;;;;;;11.23;100.00;98734.81;5032329;28;20044;-58
2024/04/08 05:09:40;;;;;;;0.20;0.20;;;;;;;11.22;100.00;98735.88;5035859;28;20041;-57
2024/04/08 05:12:07;;;;;;;0.20;0.20;;;;;;;11.22;100.00;98738.56;5029117;28;20068;-57
2024/04/08 05:14:34;;;;;;;0.17;0.17;;;;;;;11.32;100.00;98730.59;5030669;28;20633;-58
2024/04/08 05:17:00;;;;;;;0.30;0.30;;;;;;;11.53;100.00;98728.84;5030754;28;20037;-58
2024/04/08 05:19:27;;;;;;;0.10;0.10;;;;;;;11.53;100.00;98738.75;5040890;28;20092;-57
2024/04/08 05:21:53;;;;;;;0.20;0.20;;;;;;;11.78;100.00;98735.38;5035086;28;20491;-57
2024/04/08 05:24:21;;;;;;;0.20;0.20;;;;;;;11.77;100.00;98739.94;5034490;28;20056;-58
2024/04/08 05:26:47;;;;;;;0.13;0.13;;;;;;;11.63;100.00;98742.31;5022521;28;20052;-57
2024/04/08 05:29:14;;;;;;;0.20;0.20;;;;;;;12.12;100.00;98751.13;5028716;28;20057;-58
2024/04/08 05:31:40;;;;;;;0.20;0.20;;;;;;;12.81;100.00;98748.00;5030430;28;20099;-58
2024/04/08 05:34:09;;;;;;;0.20;0.20;;;;;;;13.07;100.00;98753.38;5032571;28;20048;-58
2024/04/08 05:36:35;;;;;;;0.20;0.20;;;;;;;13.51;100.00;98748.25;5033608;28;20056;-57
2024/04/08 05:39:02;;;;;;;0.20;0.20;;;;;;;12.93;100.00;98742.38;5033417;28;20052;-58
2024/04/08 05:41:29;;;;;;;0.20;0.20;;;;;;;12.57;100.00;98745.03;5014205;28;20041;-57
2024/04/08 05:43:56;;;;;;;0.10;0.10;;;;;;;13.01;100.00;98741.81;5036142;28;20048;-58
2024/04/08 05:46:24;;;;;;;0.20;0.20;;;;;;;14.75;100.00;98751.16;5029950;28;20041;-57
2024/04/08 05:48:51;;;;;;;0.20;0.20;;;;;;;15.77;95.41;98744.00;5034864;28;20045;-58
2024/04/08 05:51:17;;;;;;;0.10;0.10;;;;;;;16.42;91.76;98738.81;5034437;28;20040;-58
2024/04/08 05:53:44;;;;;;;0.10;0.10;;;;;;;16.96;86.15;98740.19;5034903;28;20046;-58
2024/04/08 05:56:10;;;;;;;0.03;0.03;;;;;;;16.83;85.30;98732.03;5026593;28;20566;-58
2024/04/08 05:58:39;;;;;;;0.20;0.20;;;;;;;17.47;81.60;98735.75;5033390;28;20049;-58
2024/04/08 06:01:05;;;;;;;0.20;0.20;;;;;;;17.56;79.62;98736.69;5028905;28;20040;-58
2024/04/08 06:03:32;;;;;;;0.00;0.00;;;;;;;17.41;80.45;98742.41;5030466;28;20057;-58
2024/04/08 06:05:58;;;;;;;0.00;0.00;;;;;;;18.14;78.59;98751.53;5031053;28;20407;-58
2024/04/08 06:08:27;;;;;;;0.10;0.10;;;;;;;18.41;75.30;98742.53;5029374;28;20052;-58
2024/04/08 06:10:53;;;;;;;0.10;0.10;;;;;;;19.18;73.36;98744.25;5031326;28;20043;-58
2024/04/08 06:13:21;;;;;;;0.00;0.00;;;;;;;18.79;73.53;98752.31;5033180;28;20028;-58
2024/04/08 06:15:49;;;;;;;0.10;0.10;;;;;;;19.42;71.50;98758.59;5036196;28;20044;-58
2024/04/08 06:18:16;;;;;;;0.03;0.03;;;;;;;19.32;73.47;98748.78;5043273;28;20045;-59
2024/04/08 06:20:43;;;;;;;0.10;0.10;;;;;;;19.73;71.96;98747.75;5034734;28;20041;-58
2024/04/08 06:23:10;;;;;;;0.00;0.00;;;;;;;20.59;68.87;98738.97;5026509;28;20067;-58
2024/04/08 06:25:36;;;;;;;0.00;0.00;;;;;;;21.14;65.80;98740.16;5031033;28;20839;-58
2024/04/08 06:28:03;;;;;;;0.10;0.10;;;;;;;19.47;70.12;98745.69;5027397;28;20103;-58
2024/04/08 06:30:29;;;;;;;0.00;0.00;;;;;;;20.00;68.92;98746.72;5033681;28;20041;-59
2024/04/08 06:32:58;;;;;;;0.08;0.08;;;;;;;20.86;65.10;98750.63;5033223;28;20081;-58
2024/04/08 06:35:24;;;;;;;0.00;0.00;;;;;;;21.53;63.63;98743.78;5028850;28;20052;-58
2024/04/08 06:37:51;;;;;;;0.00;0.00;;;;;;;21.41;63.15;98755.34;5037043;28;20047;-58
2024/04/08 06:40:17;;;;;;;0.00;0.00;;;;;;;21.82;62.41;98758.59;5052877;28;20446;-59
2024/04/08 06:42:44;;;;;;;0.03;0.03;;;;;;;21.99;62.20;98755.78;5034774;28;20045;-59
2024/04/08 06:45:11;;;;;;;0.00;0.00;;;;;;;21.97;61.35;98758.03;5031002;28;20042;-58
2024/04/08 06:47:38;;;;;;;0.00;0.00;;;;;;;21.83;62.24;98766.41;5028914;28;20037;-58
2024/04/08 06:50:06;;;;;;;0.00;0.00;;;;;;;21.56;64.07;98759.47;5031281;28;20099;-58
2024/04/08 06:52:33;;;;;;;0.00;0.00;;;;;;;21.90;62.27;98749.56;5030713;28;20044;-58
2024/04/08 06:55:00;;;;;;;0.00;0.00;;;;;;;22.57;59.63;98751.38;5035805;28;20076;-58
2024/04/08 06:57:27;;;;;;;0.00;0.00;;;;;;;22.23;61.00;98743.44;5025389;28;20110;-58
2024/04/08 06:59:53;;;;;;;0.00;0.00;;;;;;;22.12;61.88;98740.28;5032144;28;20061;-58
2024/04/08 07:02:20;;;;;;;0.03;0.03;;;;;;;22.51;61.10;98751.91;5028396;28;20059;-59
2024/04/08 07:04:45;;;;;;;0.00;0.00;;;;;;;23.35;57.70;98744.41;5035795;28;20045;-58
2024/04/08 07:07:14;;;;;;;0.00;0.00;;;;;;;23.73;56.31;98748.78;5029348;28;20613;-58
2024/04/08 07:09:40;;;;;;;0.00;0.00;;;;;;;21.50;63.84;98753.41;5030143;28;20040;-58
2024/04/08 07:12:08;;;;;;;0.00;0.00;;;;;;;21.51;64.19;98743.28;5028355;28;20053;-58
2024/04/08 07:14:34;;;;;;;0.00;0.00;;;;;;;20.36;69.09;98754.59;5033296;28;20048;-58
2024/04/08 07:17:01;;;;;;;0.00;0.00;;;;;;;21.33;65.69;98747.97;5039712;28;20041;-58
2024/04/08 07:19:27;;;;;;;0.00;0.00;;;;;;;21.52;64.71;98751.16;5029370;28;20470;-58
2024/04/08 07:21:54;;;;;;;0.00;0.00;;;;;;;20.88;66.13;98754.63;5032858;28;20045;-58
2024/04/08 07:24:22;;;;;;;0.10;0.10;;;;;;;20.44;70.43;98751.09;5040614;28;20126;-58
2024/04/08 07:26:49;;;;;;;0.00;0.00;;;;;;;19.50;75.43;98744.28;5041360;28;20033;-58
2024/04/08 07:29:15;;;;;;;0.00;0.00;;;;;;;20.36;70.66;98743.72;5039651;28;20041;-58
2024/04/08 07:31:42;;;;;;;0.00;0.00;;;;;;;19.91;73.86;98743.94;5031588;28;20045;-58
2024/04/08 07:34:08;;;;;;;0.00;0.00;;;;;;;19.02;77.42;98740.34;5040760;28;20048;-58
2024/04/08 07:36:36;;;;;;;0.00;0.00;;;;;;;18.14;86.71;98731.75;5035079;28;20048;-58
2024/04/08 07:39:02;;;;;;;0.10;0.10;;;;;;;18.61;84.80;98732.34;5034925;28;20047;-57
2024/04/08 07:41:31;;;;;;;0.00;0.00;;;;;;;19.42;78.40;98743.13;5029071;28;20036;-58
2024/04/08 07:44:00;;;;;;;0.00;0.00;;;;;;;20.56;72.49;98741.53;5035628;28;20054;-58
2024/04/08 07:46:27;;;;;;;0.00;0.00;;;;;;;20.48;73.89;98734.94;5038487;28;20072;-58
2024/04/08 07:48:53;;;;;;;0.00;0.00;;;;;;;19.75;74.80;98732.72;5030979;28;20044;-58
2024/04/08 07:51:20;;;;;;;0.00;0.00;;;;;;;18.75;81.75;98730.38;5029110;28;20052;-58
2024/04/08 07:53:46;;;;;;;0.00;0.00;;;;;;;20.17;76.75;98724.19;5038845;28;20118;-58
2024/04/08 07:56:13;;;;;;;0.03;0.03;;;;;;;19.55;75.84;98720.47;5036119;28;20048;-58
2024/04/08 07:58:42;;;;;;;0.00;0.00;;;;;;;20.79;73.91;98718.47;5038147;28;20049;-58
2024/04/08 08:01:09;;;;;;;0.03;0.03;;;;;;;21.62;69.23;98728.19;5028311;28;20041;-58
2024/04/08 08:03:35;;;;;;;0.00;0.00;;;;;;;22.28;63.94;98721.41;5032272;28;20181;-58
2024/04/08 08:06:02;;;;;;;0.00;0.00;;;;;;;22.68;61.98;98729.13;5038159;28;20486;-58
2024/04/08 08:08:29;;;;;;;0.00;0.00;;;;;;;22.14;64.22;98727.91;5036773;28;20120;-58
2024/04/08 08:10:58;;;;;;;0.00;0.00;;;;;;;21.65;65.56;98727.53;5033313;28;20502;-58
2024/04/08 08:13:25;;;;;;;0.00;0.00;;;;;;;19.32;77.24;98727.06;5020022;28;20045;-58
2024/04/08 08:15:56;;;;;;;0.00;0.00;;;;;;;20.24;75.37;98729.94;5036814;28;20040;-58
2024/04/08 08:18:23;;;;;;;0.00;0.00;;;;;;;20.99;71.63;98716.16;5037725;28;20068;-58
2024/04/08 08:20:50;;;;;;;0.00;0.00;;;;;;;22.07;65.87;98711.25;5041638;28;20033;-58
2024/04/08 08:23:17;;;;;;;0.00;0.00;;;;;;;19.51;73.82;98713.25;5033094;28;20075;-58
2024/04/08 08:25:46;;;;;;;0.00;0.00;;;;;;;20.87;70.97;98693.13;5045773;28;20059;-58
2024/04/08 08:28:13;;;;;;;0.00;0.00;;;;;;;19.46;76.14;98706.03;5035193;28;20065;-58
2024/04/08 08:30:40;;;;;;;0.00;0.00;;;;;;;21.09;69.45;98705.75;5040579;28;20399;-58
2024/04/08 08:33:09;;;;;;;0.00;0.00;;;;;;;21.66;65.01;98701.06;5051631;28;20048;-58
2024/04/08 08:35:35;;;;;;;0.00;0.00;;;;;;;21.62;67.98;98698.19;5038166;28;20057;-58
2024/04/08 08:38:02;;;;;;;0.03;0.03;;;;;;;22.83;62.28;98709.38;5033977;28;20046;-58
2024/04/08 08:40:28;;;;;;;0.00;0.00;;;;;;;22.87;60.59;98707.59;5034849;28;20091;-58
2024/04/08 08:42:56;;;;;;;0.00;0.00;;;;;;;21.73;63.69;98706.78;5031657;28;20079;-58
2024/04/08 08:45:22;;;;;;;0.00;0.00;;;;;;;22.14;63.40;98708.81;5033648;28;20514;-58
2024/04/08 08:47:49;;;;;;;0.00;0.00;;;;;;;22.75;62.06;98713.78;5033176;28;20495;-58
2024/04/08 08:50:16;;;;;;;0.00;0.00;;;;;;;21.83;64.00;98713.81;5033864;28;20153;-58
2024/04/08 08:52:43;;;;;;;0.00;0.00;;;;;;;22.77;61.31;98699.81;5030564;28;20089;-58
2024/04/08 08:55:10;;;;;;;0.00;0.00;;;;;;;23.10;59.23;98702.53;5033645;28;20033;-58
2024/04/08 08:57:37;;;;;;;0.00;0.00;;;;;;;22.84;58.76;98700.06;5029117;28;20070;-58
2024/04/08 09:00:05;;;;;;;0.00;0.00;;;;;;;22.56;57.58;98695.16;5026372;28;20223;-58
2024/04/08 09:02:32;;;;;;;0.00;0.00;;;;;;;20.85;64.30;98695.38;5032678;28;20053;-58
2024/04/08 09:04:58;;;;;;;0.00;0.00;;;;;;;22.75;61.25;98699.34;5031669;28;20127;-58
2024/04/08 09:07:27;;;;;;;0.00;0.00;;;;;;;23.67;55.61;98687.22;5047434;28;20796;-58
2024/04/08 09:09:53;;;;;;;0.00;0.00;;;;;;;23.57;55.06;98679.47;5036406;28;20035;-58
2024/04/08 09:12:20;;;;;;;0.00;0.00;;;;;;;21.69;57.85;98684.03;5037735;28;20049;-58
2024/04/08 09:14:48;;;;;;;0.00;0.00;;;;;;;22.96;56.13;98683.69;5035875;28;20069;-58
2024/04/08 09:17:16;;;;;;;0.00;0.00;;;;;;;23.20;57.06;98687.66;5027834;28;20072;-58
2024/04/08 09:19:42;;;;;;;0.00;0.00;;;;;;;22.82;56.28;98691.41;5037185;28;20545;-58
2024/04/08 09:22:09;;;;;;;0.00;0.00;;;;;;;22.46;58.00;98690.09;5040959;28;20045;-58
2024/04/08 09:24:36;;;;;;;0.00;0.00;;;;;;;22.68;58.59;98691.69;5036684;28;20471;-58
2024/04/08 09:27:03;;;;;;;0.00;0.00;;;;;;;22.06;61.87;98690.53;5036438;28;20179;-58
2024/04/08 09:29:29;;;;;;;0.00;0.00;;;;;;;23.18;59.49;98692.66;5036116;28;20151;-58
2024/04/08 09:31:58;;;;;;;0.00;0.00;;;;;;;23.39;58.58;98700.78;5039241;28;20041;-58
2024/04/08 09:34:24;;;;;;;0.00;0.00;;;;;;;23.11;59.48;98703.34;5036071;28;20107;-58
2024/04/08 09:36:51;;;;;;;0.00;0.00;;;;;;;23.02;57.00;98696.03;5027247;28;20119;-58
2024/04/08 09:39:17;;;;;;;0.00;0.00;;;;;;;23.91;55.29;98691.91;5037058;28;20044;-58
2024/04/08 09:41:45;;;;;;;0.00;0.00;;;;;;;22.93;55.47;98689.03;5038360;28;20068;-58
2024/04/08 09:44:12;;;;;;;0.00;0.00;;;;;;;22.89;56.93;98686.19;5038510;28;20033;-58
2024/04/08 09:46:40;;;;;;;0.00;0.00;;;;;;;22.22;60.54;98696.25;5033122;28;20420;-58
2024/04/08 09:49:09;;;;;;;0.00;0.00;;;;;;;22.33;63.31;98697.44;5032022;28;20040;-58
2024/04/08 09:51:36;;;;;;;0.00;0.00;;;;;;;22.33;60.59;98688.47;5032191;28;20053;-58
2024/04/08 09:54:02;;;;;;;0.00;0.00;;;;;;;22.28;60.31;98683.19;5031344;28;20446;-58
2024/04/08 09:56:30;;;;;;;0.00;0.00;;;;;;;21.85;60.49;98687.78;5031535;28;20052;-58
2024/04/08 09:59:02;;;;;;;0.00;0.00;;;;;;;21.07;65.37;98688.13;5036106;28;20599;-57
2024/04/08 10:01:29;;;;;;;0.00;0.00;;;;;;;22.44;61.12;98688.84;5033189;28;20042;-58
2024/04/08 10:03:58;;;;;;;0.00;0.00;;;;;;;22.66;59.20;98693.16;5029512;28;20041;-58
2024/04/08 10:06:25;;;;;;;0.00;0.00;;;;;;;21.73;61.17;98687.69;5023664;28;20341;-58
2024/04/08 10:10:16;;;;;;;0.00;0.00;;;;;;;21.44;62.46;98692.03;5500882;25;20338;-57
2024/04/08 10:12:42;;;;;;;0.00;0.00;;;;;;;21.23;61.64;98688.38;5471843;25;20332;-57
2024/04/08 10:15:11;;;;;;;0.00;0.00;;;;;;;21.26;60.35;98688.50;5456706;25;20036;-58
2024/04/08 10:17:37;;;;;;;0.00;0.00;;;;;;;21.45;62.36;98684.63;5479670;25;19998;-57
2024/04/08 10:20:07;;;;;;;0.00;0.00;;;;;;;21.29;62.46;98687.06;5440027;26;20423;-57
2024/04/08 10:22:35;;;;;;;0.00;0.00;;;;;;;21.16;64.11;98688.88;5480821;25;20002;-57
2024/04/08 10:25:04;;;;;;;0.00;0.00;;;;;;;21.19;63.39;98671.91;5476648;25;20019;-58
2024/04/08 10:27:33;;;;;;;0.00;0.00;;;;;;;21.35;63.23;98676.81;5460700;25;20405;-57
2024/04/08 10:30:03;;;;;;;0.00;0.00;;;;;;;21.54;60.97;98674.47;5468930;25;20002;-58
2024/04/08 10:32:29;;;;;;;0.00;0.00;;;;;;;21.39;62.57;98675.84;5475414;25;20119;-58
2024/04/08 10:34:58;;;;;;;0.00;0.00;;;;;;;21.11;63.57;98662.59;5484117;25;20037;-57
2024/04/08 10:37:24;;;;;;;0.00;0.00;;;;;;;20.42;66.01;98663.53;5474883;25;20029;-58
2024/04/08 10:39:59;;;;;;;0.00;0.00;;;;;;;20.40;68.81;98673.94;5476892;26;20014;-57
2024/04/08 10:42:27;;;;;;;0.00;0.00;;;;;;;21.05;66.88;98668.56;5461413;26;20002;-57
2024/04/08 10:44:58;;;;;;;0.00;0.00;;;;;;;20.64;68.76;98659.03;5481110;26;20035;-57
2024/04/08 10:47:24;;;;;;;0.00;0.00;;;;;;;20.63;70.78;98652.00;5476479;25;20002;-57
2024/04/08 10:49:53;;;;;;;0.00;0.00;;;;;;;20.96;66.04;98654.16;5485248;26;20503;-57
2024/04/08 10:52:19;;;;;;;0.00;0.00;;;;;;;20.26;67.27;98659.69;5469063;26;20045;-57
2024/04/08 10:54:48;;;;;;;0.10;0.10;;;;;;;21.56;61.68;98655.06;5483484;26;20496;-57
2024/04/08 10:57:14;;;;;;;0.00;0.00;;;;;;;22.28;61.16;98650.44;5481161;26;20006;-57
2024/04/08 10:59:43;;;;;;;0.00;0.00;;;;;;;22.02;60.64;98626.88;5474449;26;20346;-58
2024/04/08 11:02:14;;;;;;;0.00;0.00;;;;;;;21.81;60.82;98620.59;5472694;26;20010;-57
2024/04/08 11:04:42;;;;;;;0.00;0.00;;;;;;;21.43;59.32;98621.47;5475458;26;20413;-57
2024/04/08 11:07:08;;;;;;;0.00;0.00;;;;;;;20.54;64.28;98611.13;5484893;26;20019;-57
2024/04/08 11:09:38;;;;;;;0.00;0.00;;;;;;;21.80;60.60;98608.88;5481919;26;20002;-59
2024/04/08 11:12:04;;;;;;;0.00;0.00;;;;;;;22.13;59.09;98611.69;5476203;26;20011;-58
2024/04/08 11:14:33;;;;;;;0.00;0.00;;;;;;;21.85;58.78;98622.31;5477642;26;19998;-57
2024/04/08 11:17:08;;;;;;;0.00;0.00;;;;;;;22.23;59.67;98626.88;5475783;26;20021;-57
2024/04/08 11:19:39;;;;;;;0.00;0.00;;;;;;;22.63;56.62;98631.00;5468336;26;20031;-57
2024/04/08 11:22:07;;;;;;;0.00;0.00;;;;;;;23.03;55.70;98620.31;5458332;26;20002;-58
2024/04/08 11:24:36;;;;;;;0.00;0.00;;;;;;;22.38;57.26;98623.53;5462718;26;20006;-58
2024/04/08 11:27:04;;;;;;;0.00;0.00;;;;;;;22.39;55.51;98624.34;5451834;26;20030;-58
2024/04/08 11:29:33;;;;;;;0.00;0.00;;;;;;;23.01;55.10;98623.41;5459145;26;20219;-58